sensor_id;sensor_type;location;lat;lon;timestamp;P1;durP1;ratioP1;P2;durP2;ratioP2
11016;SDS011;54687;50.800;6.772;2022-11-30T00:00:07;40.60;;;28.85;;
11016;SDS011;54687;50.800;6.772;2022-11-30T00:02:34;46.42;;;31.98;;
11016;SDS011;54687;50.800;6.772;2022-11-30T00:05:01;45.63;;;30.83;;
11016;SDS011;54687;50.800;6.772;2022-11-30T00:07:27;38.95;;;29.92;;
11016;SDS011;54687;50.800;6.772;2022-11-30T00:09:54;49.38;;;31.05;;
11016;SDS011;54687;50.800;6.772;2022-11-30T00:12:21;45.10;;;31.60;;
11016;SDS011;54687;50.800;6.772;2022-11-30T00:14:48;45.40;;;31.98;;
11016;SDS011;54687;50.800;6.772;2022-11-30T00:17:15;43.97;;;32.00;;
11016;SDS011;54687;50.800;6.772;2022-11-30T00:19:42;42.63;;;29.48;;
11016;SDS011;54687;50.800;6.772;2022-11-30T00:22:08;32.97;;;25.90;;
11016;SDS011;54687;50.800;6.772;2022-11-30T00:24:35;41.50;;;29.60;;
11016;SDS011;54687;50.800;6.772;2022-11-30T00:27:02;42.80;;;30.10;;
11016;SDS011;54687;50.800;6.772;2022-11-30T00:29:28;41.65;;;28.77;;
11016;SDS011;54687;50.800;6.772;2022-11-30T00:31:56;45.85;;;32.78;;
11016;SDS011;54687;50.800;6.772;2022-11-30T00:34:23;44.55;;;31.83;;
11016;SDS011;54687;50.800;6.772;2022-11-30T00:36:50;47.47;;;32.90;;
11016;SDS011;54687;50.800;6.772;2022-11-30T00:39:16;46.55;;;33.25;;
11016;SDS011;54687;50.800;6.772;2022-11-30T00:41:43;55.72;;;36.47;;
11016;SDS011;54687;50.800;6.772;2022-11-30T00:44:10;48.63;;;34.15;;
11016;SDS011;54687;50.800;6.772;2022-11-30T00:46:36;56.53;;;38.85;;
11016;SDS011;54687;50.800;6.772;2022-11-30T00:49:04;49.45;;;35.13;;
11016;SDS011;54687;50.800;6.772;2022-11-30T00:51:31;50.78;;;37.50;;
11016;SDS011;54687;50.800;6.772;2022-11-30T00:53:58;49.88;;;35.28;;
11016;SDS011;54687;50.800;6.772;2022-11-30T00:56:25;45.67;;;34.33;;
11016;SDS011;54687;50.800;6.772;2022-11-30T00:58:51;49.38;;;36.55;;
11016;SDS011;54687;50.800;6.772;2022-11-30T01:01:18;51.90;;;37.55;;
11016;SDS011;54687;50.800;6.772;2022-11-30T01:03:45;51.70;;;36.15;;
11016;SDS011;54687;50.800;6.772;2022-11-30T01:06:13;52.97;;;36.25;;
11016;SDS011;54687;50.800;6.772;2022-11-30T01:08:40;43.13;;;32.38;;
11016;SDS011;54687;50.800;6.772;2022-11-30T01:11:07;47.33;;;33.75;;
11016;SDS011;54687;50.800;6.772;2022-11-30T01:13:36;60.55;;;36.72;;
11016;SDS011;54687;50.800;6.772;2022-11-30T01:16:07;50.33;;;36.55;;
11016;SDS011;54687;50.800;6.772;2022-11-30T01:18:35;47.58;;;34.70;;
11016;SDS011;54687;50.800;6.772;2022-11-30T01:21:04;48.25;;;34.47;;
11016;SDS011;54687;50.800;6.772;2022-11-30T01:23:33;48.45;;;34.13;;
11016;SDS011;54687;50.800;6.772;2022-11-30T01:26:00;49.28;;;35.00;;
11016;SDS011;54687;50.800;6.772;2022-11-30T01:28:27;58.15;;;36.65;;
11016;SDS011;54687;50.800;6.772;2022-11-30T01:30:57;48.80;;;34.08;;
11016;SDS011;54687;50.800;6.772;2022-11-30T01:33:24;45.08;;;34.05;;
11016;SDS011;54687;50.800;6.772;2022-11-30T01:35:58;44.30;;;33.17;;
11016;SDS011;54687;50.800;6.772;2022-11-30T01:38:26;44.83;;;33.00;;
11016;SDS011;54687;50.800;6.772;2022-11-30T01:40:54;42.75;;;31.17;;
11016;SDS011;54687;50.800;6.772;2022-11-30T01:43:20;44.50;;;31.95;;
11016;SDS011;54687;50.800;6.772;2022-11-30T01:45:47;43.30;;;31.48;;
11016;SDS011;54687;50.800;6.772;2022-11-30T01:48:14;46.33;;;33.85;;
11016;SDS011;54687;50.800;6.772;2022-11-30T01:50:41;50.67;;;35.38;;
11016;SDS011;54687;50.800;6.772;2022-11-30T01:53:10;52.45;;;37.58;;
11016;SDS011;54687;50.800;6.772;2022-11-30T01:55:38;46.30;;;34.13;;
11016;SDS011;54687;50.800;6.772;2022-11-30T01:58:09;53.20;;;37.08;;
11016;SDS011;54687;50.800;6.772;2022-11-30T02:00:38;52.55;;;35.85;;
11016;SDS011;54687;50.800;6.772;2022-11-30T02:03:11;49.88;;;35.50;;
11016;SDS011;54687;50.800;6.772;2022-11-30T02:05:43;52.17;;;35.30;;
11016;SDS011;54687;50.800;6.772;2022-11-30T02:08:11;47.72;;;35.58;;
11016;SDS011;54687;50.800;6.772;2022-11-30T02:10:39;61.17;;;40.20;;
11016;SDS011;54687;50.800;6.772;2022-11-30T02:13:17;58.95;;;37.25;;
11016;SDS011;54687;50.800;6.772;2022-11-30T02:16:00;49.13;;;34.33;;
11016;SDS011;54687;50.800;6.772;2022-11-30T02:18:35;53.25;;;35.97;;
11016;SDS011;54687;50.800;6.772;2022-11-30T02:21:11;53.28;;;35.20;;
11016;SDS011;54687;50.800;6.772;2022-11-30T02:23:48;55.78;;;36.53;;
11016;SDS011;54687;50.800;6.772;2022-11-30T02:26:50;56.47;;;37.72;;
11016;SDS011;54687;50.800;6.772;2022-11-30T02:29:25;50.83;;;34.45;;
11016;SDS011;54687;50.800;6.772;2022-11-30T02:31:57;60.08;;;37.20;;
11016;SDS011;54687;50.800;6.772;2022-11-30T02:34:32;52.40;;;34.75;;
11016;SDS011;54687;50.800;6.772;2022-11-30T02:37:01;58.22;;;37.22;;
11016;SDS011;54687;50.800;6.772;2022-11-30T02:39:30;64.07;;;38.63;;
11016;SDS011;54687;50.800;6.772;2022-11-30T02:41:56;68.68;;;38.78;;
11016;SDS011;54687;50.800;6.772;2022-11-30T02:44:24;68.38;;;39.45;;
11016;SDS011;54687;50.800;6.772;2022-11-30T02:46:55;66.47;;;40.38;;
11016;SDS011;54687;50.800;6.772;2022-11-30T02:49:31;63.70;;;38.53;;
11016;SDS011;54687;50.800;6.772;2022-11-30T02:52:02;72.85;;;40.65;;
11016;SDS011;54687;50.800;6.772;2022-11-30T02:54:32;67.43;;;39.03;;
11016;SDS011;54687;50.800;6.772;2022-11-30T02:56:59;62.13;;;37.70;;
11016;SDS011;54687;50.800;6.772;2022-11-30T02:59:27;75.05;;;42.25;;
11016;SDS011;54687;50.800;6.772;2022-11-30T03:01:54;72.32;;;40.58;;
11016;SDS011;54687;50.800;6.772;2022-11-30T03:04:21;70.40;;;40.38;;
11016;SDS011;54687;50.800;6.772;2022-11-30T03:06:48;68.80;;;39.00;;
11016;SDS011;54687;50.800;6.772;2022-11-30T03:09:15;66.50;;;39.08;;
11016;SDS011;54687;50.800;6.772;2022-11-30T03:11:41;61.63;;;36.20;;
11016;SDS011;54687;50.800;6.772;2022-11-30T03:14:08;76.25;;;40.55;;
11016;SDS011;54687;50.800;6.772;2022-11-30T03:16:36;73.68;;;39.35;;
11016;SDS011;54687;50.800;6.772;2022-11-30T03:19:03;64.93;;;39.55;;
11016;SDS011;54687;50.800;6.772;2022-11-30T03:21:30;65.32;;;36.38;;
11016;SDS011;54687;50.800;6.772;2022-11-30T03:23:57;62.72;;;35.80;;
11016;SDS011;54687;50.800;6.772;2022-11-30T03:26:23;61.85;;;35.75;;
11016;SDS011;54687;50.800;6.772;2022-11-30T03:28:50;68.53;;;38.35;;
11016;SDS011;54687;50.800;6.772;2022-11-30T03:31:16;61.47;;;35.35;;
11016;SDS011;54687;50.800;6.772;2022-11-30T03:33:44;58.10;;;34.95;;
11016;SDS011;54687;50.800;6.772;2022-11-30T03:36:11;66.22;;;35.53;;
11016;SDS011;54687;50.800;6.772;2022-11-30T03:38:38;56.03;;;33.92;;
11016;SDS011;54687;50.800;6.772;2022-11-30T03:41:06;55.55;;;32.58;;
11016;SDS011;54687;50.800;6.772;2022-11-30T03:43:33;54.05;;;31.73;;
11016;SDS011;54687;50.800;6.772;2022-11-30T03:46:00;54.38;;;31.27;;
11016;SDS011;54687;50.800;6.772;2022-11-30T03:48:27;50.35;;;29.67;;
11016;SDS011;54687;50.800;6.772;2022-11-30T03:50:56;46.42;;;29.05;;
11016;SDS011;54687;50.800;6.772;2022-11-30T03:53:23;48.45;;;31.15;;
11016;SDS011;54687;50.800;6.772;2022-11-30T03:55:50;51.78;;;32.08;;
11016;SDS011;54687;50.800;6.772;2022-11-30T03:58:18;48.47;;;29.55;;
11016;SDS011;54687;50.800;6.772;2022-11-30T04:00:45;49.10;;;30.10;;
11016;SDS011;54687;50.800;6.772;2022-11-30T04:03:12;53.25;;;30.75;;
11016;SDS011;54687;50.800;6.772;2022-11-30T04:05:39;47.17;;;30.95;;
11016;SDS011;54687;50.800;6.772;2022-11-30T04:08:07;45.83;;;30.13;;
11016;SDS011;54687;50.800;6.772;2022-11-30T04:10:34;50.38;;;30.00;;
11016;SDS011;54687;50.800;6.772;2022-11-30T04:13:00;50.42;;;31.88;;
11016;SDS011;54687;50.800;6.772;2022-11-30T04:15:27;47.65;;;30.45;;
11016;SDS011;54687;50.800;6.772;2022-11-30T04:17:53;53.83;;;32.47;;
11016;SDS011;54687;50.800;6.772;2022-11-30T04:20:20;57.15;;;31.63;;
11016;SDS011;54687;50.800;6.772;2022-11-30T04:22:47;53.95;;;31.90;;
11016;SDS011;54687;50.800;6.772;2022-11-30T04:25:15;53.13;;;31.27;;
11016;SDS011;54687;50.800;6.772;2022-11-30T04:27:43;52.75;;;32.80;;
11016;SDS011;54687;50.800;6.772;2022-11-30T04:30:11;51.83;;;31.73;;
11016;SDS011;54687;50.800;6.772;2022-11-30T04:32:38;57.53;;;32.33;;
11016;SDS011;54687;50.800;6.772;2022-11-30T04:35:05;55.95;;;32.85;;
11016;SDS011;54687;50.800;6.772;2022-11-30T04:37:32;60.05;;;34.38;;
11016;SDS011;54687;50.800;6.772;2022-11-30T04:39:59;62.42;;;33.88;;
11016;SDS011;54687;50.800;6.772;2022-11-30T04:42:27;53.65;;;31.42;;
11016;SDS011;54687;50.800;6.772;2022-11-30T04:44:54;50.42;;;30.60;;
11016;SDS011;54687;50.800;6.772;2022-11-30T04:47:21;66.75;;;36.47;;
11016;SDS011;54687;50.800;6.772;2022-11-30T04:49:47;54.22;;;30.77;;
11016;SDS011;54687;50.800;6.772;2022-11-30T04:52:14;64.97;;;33.20;;
11016;SDS011;54687;50.800;6.772;2022-11-30T04:54:41;54.50;;;33.10;;
11016;SDS011;54687;50.800;6.772;2022-11-30T04:57:07;63.10;;;33.75;;
11016;SDS011;54687;50.800;6.772;2022-11-30T04:59:36;60.90;;;33.03;;
11016;SDS011;54687;50.800;6.772;2022-11-30T05:02:02;50.42;;;32.53;;
11016;SDS011;54687;50.800;6.772;2022-11-30T05:04:29;61.65;;;32.92;;
11016;SDS011;54687;50.800;6.772;2022-11-30T05:06:56;52.45;;;30.92;;
11016;SDS011;54687;50.800;6.772;2022-11-30T05:09:22;61.83;;;35.40;;
11016;SDS011;54687;50.800;6.772;2022-11-30T05:11:49;54.80;;;30.80;;
11016;SDS011;54687;50.800;6.772;2022-11-30T05:14:16;55.15;;;31.05;;
11016;SDS011;54687;50.800;6.772;2022-11-30T05:16:45;53.13;;;32.50;;
11016;SDS011;54687;50.800;6.772;2022-11-30T05:19:12;60.03;;;35.45;;
11016;SDS011;54687;50.800;6.772;2022-11-30T05:21:43;50.55;;;32.47;;
11016;SDS011;54687;50.800;6.772;2022-11-30T05:24:10;54.40;;;32.65;;
11016;SDS011;54687;50.800;6.772;2022-11-30T05:26:37;67.60;;;34.80;;
11016;SDS011;54687;50.800;6.772;2022-11-30T05:29:04;53.45;;;33.25;;
11016;SDS011;54687;50.800;6.772;2022-11-30T05:31:31;71.45;;;36.85;;
11016;SDS011;54687;50.800;6.772;2022-11-30T05:33:59;49.03;;;31.73;;
11016;SDS011;54687;50.800;6.772;2022-11-30T05:36:26;56.22;;;33.10;;
11016;SDS011;54687;50.800;6.772;2022-11-30T05:38:52;48.05;;;30.92;;
11016;SDS011;54687;50.800;6.772;2022-11-30T05:41:19;55.25;;;31.02;;
11016;SDS011;54687;50.800;6.772;2022-11-30T05:43:46;54.05;;;33.03;;
11016;SDS011;54687;50.800;6.772;2022-11-30T05:46:12;54.78;;;33.55;;
11016;SDS011;54687;50.800;6.772;2022-11-30T05:48:39;56.53;;;35.72;;
11016;SDS011;54687;50.800;6.772;2022-11-30T05:51:08;54.63;;;34.40;;
11016;SDS011;54687;50.800;6.772;2022-11-30T05:53:36;66.85;;;37.35;;
11016;SDS011;54687;50.800;6.772;2022-11-30T05:56:03;61.80;;;35.17;;
11016;SDS011;54687;50.800;6.772;2022-11-30T05:58:30;60.88;;;34.65;;
11016;SDS011;54687;50.800;6.772;2022-11-30T06:00:57;54.17;;;33.03;;
11016;SDS011;54687;50.800;6.772;2022-11-30T06:03:24;68.18;;;37.05;;
11016;SDS011;54687;50.800;6.772;2022-11-30T06:05:50;62.17;;;37.45;;
11016;SDS011;54687;50.800;6.772;2022-11-30T06:08:19;56.88;;;35.90;;
11016;SDS011;54687;50.800;6.772;2022-11-30T06:10:45;53.78;;;34.95;;
11016;SDS011;54687;50.800;6.772;2022-11-30T06:13:12;50.75;;;35.47;;
11016;SDS011;54687;50.800;6.772;2022-11-30T06:15:39;51.53;;;35.63;;
11016;SDS011;54687;50.800;6.772;2022-11-30T06:18:07;45.50;;;33.88;;
11016;SDS011;54687;50.800;6.772;2022-11-30T06:20:36;39.70;;;30.92;;
11016;SDS011;54687;50.800;6.772;2022-11-30T06:23:03;37.83;;;30.80;;
11016;SDS011;54687;50.800;6.772;2022-11-30T06:25:31;41.55;;;32.45;;
11016;SDS011;54687;50.800;6.772;2022-11-30T06:27:58;37.83;;;29.13;;
11016;SDS011;54687;50.800;6.772;2022-11-30T06:30:25;39.42;;;30.75;;
11016;SDS011;54687;50.800;6.772;2022-11-30T06:32:52;39.33;;;30.25;;
11016;SDS011;54687;50.800;6.772;2022-11-30T06:35:18;38.13;;;30.05;;
11016;SDS011;54687;50.800;6.772;2022-11-30T06:37:45;42.65;;;34.08;;
11016;SDS011;54687;50.800;6.772;2022-11-30T06:40:12;44.53;;;35.65;;
11016;SDS011;54687;50.800;6.772;2022-11-30T06:42:41;44.88;;;36.17;;
11016;SDS011;54687;50.800;6.772;2022-11-30T06:45:08;47.42;;;37.55;;
11016;SDS011;54687;50.800;6.772;2022-11-30T06:47:35;52.05;;;37.00;;
11016;SDS011;54687;50.800;6.772;2022-11-30T06:50:02;47.88;;;37.00;;
11016;SDS011;54687;50.800;6.772;2022-11-30T06:52:30;44.75;;;34.22;;
11016;SDS011;54687;50.800;6.772;2022-11-30T06:54:57;42.17;;;35.80;;
11016;SDS011;54687;50.800;6.772;2022-11-30T06:57:25;44.13;;;35.17;;
11016;SDS011;54687;50.800;6.772;2022-11-30T06:59:54;41.28;;;33.60;;
11016;SDS011;54687;50.800;6.772;2022-11-30T07:02:21;40.22;;;33.63;;
11016;SDS011;54687;50.800;6.772;2022-11-30T07:04:48;38.67;;;33.47;;
11016;SDS011;54687;50.800;6.772;2022-11-30T07:07:15;38.65;;;32.05;;
11016;SDS011;54687;50.800;6.772;2022-11-30T07:09:42;40.58;;;32.28;;
11016;SDS011;54687;50.800;6.772;2022-11-30T07:12:08;41.85;;;33.58;;
11016;SDS011;54687;50.800;6.772;2022-11-30T07:14:35;39.42;;;32.05;;
11016;SDS011;54687;50.800;6.772;2022-11-30T07:17:03;37.85;;;31.63;;
11016;SDS011;54687;50.800;6.772;2022-11-30T07:19:30;33.65;;;29.83;;
11016;SDS011;54687;50.800;6.772;2022-11-30T07:21:56;36.15;;;29.00;;
11016;SDS011;54687;50.800;6.772;2022-11-30T07:24:23;34.50;;;30.50;;
11016;SDS011;54687;50.800;6.772;2022-11-30T07:27:07;41.08;;;32.45;;
11016;SDS011;54687;50.800;6.772;2022-11-30T07:29:34;37.45;;;30.95;;
11016;SDS011;54687;50.800;6.772;2022-11-30T07:32:00;41.47;;;33.28;;
11016;SDS011;54687;50.800;6.772;2022-11-30T07:34:28;38.30;;;32.50;;
11016;SDS011;54687;50.800;6.772;2022-11-30T07:36:55;42.20;;;34.60;;
11016;SDS011;54687;50.800;6.772;2022-11-30T07:39:22;35.50;;;30.95;;
11016;SDS011;54687;50.800;6.772;2022-11-30T07:41:49;38.65;;;32.65;;
11016;SDS011;54687;50.800;6.772;2022-11-30T07:44:15;36.70;;;29.08;;
11016;SDS011;54687;50.800;6.772;2022-11-30T07:46:42;37.65;;;31.30;;
11016;SDS011;54687;50.800;6.772;2022-11-30T07:49:10;39.47;;;33.20;;
11016;SDS011;54687;50.800;6.772;2022-11-30T07:51:36;37.83;;;30.27;;
11016;SDS011;54687;50.800;6.772;2022-11-30T07:54:03;39.58;;;32.45;;
11016;SDS011;54687;50.800;6.772;2022-11-30T07:56:30;37.58;;;29.77;;
11016;SDS011;54687;50.800;6.772;2022-11-30T07:58:57;43.33;;;35.90;;
11016;SDS011;54687;50.800;6.772;2022-11-30T08:01:27;41.92;;;33.33;;
11016;SDS011;54687;50.800;6.772;2022-11-30T08:03:55;42.05;;;32.83;;
11016;SDS011;54687;50.800;6.772;2022-11-30T08:06:24;41.08;;;32.42;;
11016;SDS011;54687;50.800;6.772;2022-11-30T08:08:53;39.03;;;32.83;;
11016;SDS011;54687;50.800;6.772;2022-11-30T08:11:22;39.60;;;32.45;;
11016;SDS011;54687;50.800;6.772;2022-11-30T08:13:50;40.55;;;34.03;;
11016;SDS011;54687;50.800;6.772;2022-11-30T08:16:18;41.70;;;33.28;;
11016;SDS011;54687;50.800;6.772;2022-11-30T08:18:46;38.55;;;32.72;;
11016;SDS011;54687;50.800;6.772;2022-11-30T08:21:13;35.72;;;29.80;;
11016;SDS011;54687;50.800;6.772;2022-11-30T08:23:44;38.75;;;30.30;;
11016;SDS011;54687;50.800;6.772;2022-11-30T08:26:12;36.75;;;29.95;;
11016;SDS011;54687;50.800;6.772;2022-11-30T08:28:40;37.83;;;32.22;;
11016;SDS011;54687;50.800;6.772;2022-11-30T08:31:08;37.88;;;32.67;;
11016;SDS011;54687;50.800;6.772;2022-11-30T08:33:40;36.92;;;32.92;;
11016;SDS011;54687;50.800;6.772;2022-11-30T08:36:07;40.92;;;35.05;;
11016;SDS011;54687;50.800;6.772;2022-11-30T08:38:35;38.25;;;32.72;;
11016;SDS011;54687;50.800;6.772;2022-11-30T08:41:03;37.33;;;32.83;;
11016;SDS011;54687;50.800;6.772;2022-11-30T08:43:31;35.58;;;30.23;;
11016;SDS011;54687;50.800;6.772;2022-11-30T08:45:59;40.75;;;33.53;;
11016;SDS011;54687;50.800;6.772;2022-11-30T08:48:27;35.35;;;31.55;;
11016;SDS011;54687;50.800;6.772;2022-11-30T08:50:53;37.03;;;32.67;;
11016;SDS011;54687;50.800;6.772;2022-11-30T08:53:23;37.15;;;31.88;;
11016;SDS011;54687;50.800;6.772;2022-11-30T08:55:54;36.38;;;32.25;;
11016;SDS011;54687;50.800;6.772;2022-11-30T08:58:23;38.72;;;32.33;;
11016;SDS011;54687;50.800;6.772;2022-11-30T09:00:49;34.90;;;31.20;;
11016;SDS011;54687;50.800;6.772;2022-11-30T09:03:16;37.90;;;33.38;;
11016;SDS011;54687;50.800;6.772;2022-11-30T09:05:43;34.85;;;30.75;;
11016;SDS011;54687;50.800;6.772;2022-11-30T09:08:10;36.58;;;32.47;;
11016;SDS011;54687;50.800;6.772;2022-11-30T09:10:36;35.92;;;31.75;;
11016;SDS011;54687;50.800;6.772;2022-11-30T09:13:03;32.72;;;29.25;;
11016;SDS011;54687;50.800;6.772;2022-11-30T09:15:31;34.35;;;30.58;;
11016;SDS011;54687;50.800;6.772;2022-11-30T09:17:59;32.83;;;28.90;;
11016;SDS011;54687;50.800;6.772;2022-11-30T09:20:26;32.50;;;28.63;;
11016;SDS011;54687;50.800;6.772;2022-11-30T09:22:53;33.13;;;29.58;;
11016;SDS011;54687;50.800;6.772;2022-11-30T09:25:19;35.75;;;30.45;;
11016;SDS011;54687;50.800;6.772;2022-11-30T09:27:46;33.28;;;29.67;;
11016;SDS011;54687;50.800;6.772;2022-11-30T09:30:12;33.45;;;29.25;;
11016;SDS011;54687;50.800;6.772;2022-11-30T09:32:40;32.30;;;28.88;;
11016;SDS011;54687;50.800;6.772;2022-11-30T09:35:07;35.22;;;28.40;;
11016;SDS011;54687;50.800;6.772;2022-11-30T09:37:34;31.27;;;27.45;;
11016;SDS011;54687;50.800;6.772;2022-11-30T09:40:00;35.63;;;28.33;;
11016;SDS011;54687;50.800;6.772;2022-11-30T09:42:30;29.33;;;26.23;;
11016;SDS011;54687;50.800;6.772;2022-11-30T09:45:06;30.42;;;26.10;;
11016;SDS011;54687;50.800;6.772;2022-11-30T09:47:46;34.20;;;28.80;;
11016;SDS011;54687;50.800;6.772;2022-11-30T09:50:31;31.95;;;27.88;;
11016;SDS011;54687;50.800;6.772;2022-11-30T09:53:04;30.95;;;27.33;;
11016;SDS011;54687;50.800;6.772;2022-11-30T09:55:37;32.88;;;27.08;;
11016;SDS011;54687;50.800;6.772;2022-11-30T09:58:09;30.75;;;26.92;;
11016;SDS011;54687;50.800;6.772;2022-11-30T10:00:42;29.17;;;25.90;;
11016;SDS011;54687;50.800;6.772;2022-11-30T10:03:10;28.25;;;25.23;;
11016;SDS011;54687;50.800;6.772;2022-11-30T10:05:40;30.17;;;26.38;;
11016;SDS011;54687;50.800;6.772;2022-11-30T10:08:15;29.00;;;25.63;;
11016;SDS011;54687;50.800;6.772;2022-11-30T10:10:53;30.40;;;27.08;;
11016;SDS011;54687;50.800;6.772;2022-11-30T10:13:37;32.03;;;27.98;;
11016;SDS011;54687;50.800;6.772;2022-11-30T10:16:19;34.65;;;30.17;;
11016;SDS011;54687;50.800;6.772;2022-11-30T10:18:56;32.90;;;29.48;;
11016;SDS011;54687;50.800;6.772;2022-11-30T10:21:33;30.65;;;27.45;;
11016;SDS011;54687;50.800;6.772;2022-11-30T10:24:14;32.47;;;28.98;;
11016;SDS011;54687;50.800;6.772;2022-11-30T10:26:52;29.45;;;26.35;;
11016;SDS011;54687;50.800;6.772;2022-11-30T10:29:22;32.67;;;28.77;;
11016;SDS011;54687;50.800;6.772;2022-11-30T10:31:56;31.58;;;28.20;;
11016;SDS011;54687;50.800;6.772;2022-11-30T10:34:27;33.67;;;28.67;;
11016;SDS011;54687;50.800;6.772;2022-11-30T10:36:59;37.47;;;31.33;;
11016;SDS011;54687;50.800;6.772;2022-11-30T10:39:30;31.63;;;28.23;;
11016;SDS011;54687;50.800;6.772;2022-11-30T10:42:03;33.05;;;29.15;;
11016;SDS011;54687;50.800;6.772;2022-11-30T10:44:37;33.70;;;28.63;;
11016;SDS011;54687;50.800;6.772;2022-11-30T10:47:06;34.47;;;30.50;;
11016;SDS011;54687;50.800;6.772;2022-11-30T10:49:43;36.03;;;31.05;;
11016;SDS011;54687;50.800;6.772;2022-11-30T10:52:14;34.40;;;30.70;;
11016;SDS011;54687;50.800;6.772;2022-11-30T10:54:43;35.72;;;31.92;;
11016;SDS011;54687;50.800;6.772;2022-11-30T10:57:10;35.28;;;30.77;;
11016;SDS011;54687;50.800;6.772;2022-11-30T10:59:40;36.00;;;31.90;;
11016;SDS011;54687;50.800;6.772;2022-11-30T11:07:49;38.15;;;32.65;;
11016;SDS011;54687;50.800;6.772;2022-11-30T11:10:19;38.10;;;32.60;;
11016;SDS011;54687;50.800;6.772;2022-11-30T11:12:49;36.67;;;32.47;;
11016;SDS011;54687;50.800;6.772;2022-11-30T11:15:18;36.95;;;31.38;;
11016;SDS011;54687;50.800;6.772;2022-11-30T11:17:47;37.03;;;31.33;;
11016;SDS011;54687;50.800;6.772;2022-11-30T11:20:29;36.63;;;32.72;;
11016;SDS011;54687;50.800;6.772;2022-11-30T11:23:00;37.95;;;33.45;;
11016;SDS011;54687;50.800;6.772;2022-11-30T11:25:30;35.08;;;31.27;;
11016;SDS011;54687;50.800;6.772;2022-11-30T11:28:02;37.53;;;33.58;;
11016;SDS011;54687;50.800;6.772;2022-11-30T11:30:33;36.40;;;32.30;;
11016;SDS011;54687;50.800;6.772;2022-11-30T11:33:02;35.38;;;31.60;;
11016;SDS011;54687;50.800;6.772;2022-11-30T11:35:33;36.13;;;32.35;;
11016;SDS011;54687;50.800;6.772;2022-11-30T11:38:01;39.42;;;33.97;;
11016;SDS011;54687;50.800;6.772;2022-11-30T11:40:29;37.90;;;33.90;;
11016;SDS011;54687;50.800;6.772;2022-11-30T11:42:56;35.83;;;32.08;;
11016;SDS011;54687;50.800;6.772;2022-11-30T11:45:23;36.47;;;32.47;;
11016;SDS011;54687;50.800;6.772;2022-11-30T11:47:58;36.47;;;32.58;;
11016;SDS011;54687;50.800;6.772;2022-11-30T11:50:28;39.20;;;34.05;;
11016;SDS011;54687;50.800;6.772;2022-11-30T11:53:11;34.40;;;30.83;;
11016;SDS011;54687;50.800;6.772;2022-11-30T11:55:48;36.88;;;29.73;;
11016;SDS011;54687;50.800;6.772;2022-11-30T11:58:18;35.05;;;31.38;;
11016;SDS011;54687;50.800;6.772;2022-11-30T12:00:50;35.17;;;31.45;;
11016;SDS011;54687;50.800;6.772;2022-11-30T12:03:24;38.28;;;34.08;;
11016;SDS011;54687;50.800;6.772;2022-11-30T12:05:57;35.78;;;32.00;;
11016;SDS011;54687;50.800;6.772;2022-11-30T12:08:32;39.33;;;34.50;;
11016;SDS011;54687;50.800;6.772;2022-11-30T12:11:04;32.67;;;29.27;;
11016;SDS011;54687;50.800;6.772;2022-11-30T12:13:39;36.25;;;31.65;;
11016;SDS011;54687;50.800;6.772;2022-11-30T12:16:13;34.40;;;30.80;;
11016;SDS011;54687;50.800;6.772;2022-11-30T12:18:53;37.58;;;31.98;;
11016;SDS011;54687;50.800;6.772;2022-11-30T12:21:28;36.42;;;30.42;;
11016;SDS011;54687;50.800;6.772;2022-11-30T12:24:23;36.72;;;29.67;;
11016;SDS011;54687;50.800;6.772;2022-11-30T12:27:10;37.28;;;32.17;;
11016;SDS011;54687;50.800;6.772;2022-11-30T12:29:47;38.55;;;32.58;;
11016;SDS011;54687;50.800;6.772;2022-11-30T12:32:24;34.92;;;31.30;;
11016;SDS011;54687;50.800;6.772;2022-11-30T12:35:07;39.55;;;33.78;;
11016;SDS011;54687;50.800;6.772;2022-11-30T12:37:48;37.85;;;31.75;;
11016;SDS011;54687;50.800;6.772;2022-11-30T12:40:28;38.75;;;31.85;;
11016;SDS011;54687;50.800;6.772;2022-11-30T12:43:02;35.47;;;31.45;;
11016;SDS011;54687;50.800;6.772;2022-11-30T12:45:38;38.63;;;32.63;;
11016;SDS011;54687;50.800;6.772;2022-11-30T12:48:12;36.85;;;32.83;;
11016;SDS011;54687;50.800;6.772;2022-11-30T12:50:49;35.58;;;31.50;;
11016;SDS011;54687;50.800;6.772;2022-11-30T12:53:28;39.38;;;34.05;;
11016;SDS011;54687;50.800;6.772;2022-11-30T12:56:04;43.72;;;32.97;;
11016;SDS011;54687;50.800;6.772;2022-11-30T12:58:45;39.60;;;33.78;;
11016;SDS011;54687;50.800;6.772;2022-11-30T13:01:25;40.75;;;36.08;;
11016;SDS011;54687;50.800;6.772;2022-11-30T13:04:05;40.45;;;34.42;;
11016;SDS011;54687;50.800;6.772;2022-11-30T13:06:41;42.00;;;35.60;;
11016;SDS011;54687;50.800;6.772;2022-11-30T13:09:12;40.72;;;33.85;;
11016;SDS011;54687;50.800;6.772;2022-11-30T13:11:46;47.65;;;40.80;;
11016;SDS011;54687;50.800;6.772;2022-11-30T13:14:20;43.80;;;37.35;;
11016;SDS011;54687;50.800;6.772;2022-11-30T13:16:48;40.28;;;35.17;;
11016;SDS011;54687;50.800;6.772;2022-11-30T13:19:25;38.88;;;34.40;;
11016;SDS011;54687;50.800;6.772;2022-11-30T13:22:05;42.80;;;36.15;;
11016;SDS011;54687;50.800;6.772;2022-11-30T13:24:38;48.90;;;39.85;;
11016;SDS011;54687;50.800;6.772;2022-11-30T13:27:11;44.50;;;38.92;;
11016;SDS011;54687;50.800;6.772;2022-11-30T13:29:47;41.92;;;36.20;;
11016;SDS011;54687;50.800;6.772;2022-11-30T13:32:22;40.58;;;36.10;;
11016;SDS011;54687;50.800;6.772;2022-11-30T13:34:50;49.83;;;37.88;;
11016;SDS011;54687;50.800;6.772;2022-11-30T13:37:17;47.97;;;39.35;;
11016;SDS011;54687;50.800;6.772;2022-11-30T13:39:47;45.10;;;38.10;;
11016;SDS011;54687;50.800;6.772;2022-11-30T13:45:16;46.88;;;38.28;;
11016;SDS011;54687;50.800;6.772;2022-11-30T13:47:49;50.28;;;40.13;;
11016;SDS011;54687;50.800;6.772;2022-11-30T13:50:19;46.13;;;38.92;;
11016;SDS011;54687;50.800;6.772;2022-11-30T13:55:56;49.67;;;41.47;;
11016;SDS011;54687;50.800;6.772;2022-11-30T13:58:27;45.60;;;37.88;;
11016;SDS011;54687;50.800;6.772;2022-11-30T14:06:48;49.55;;;39.95;;
11016;SDS011;54687;50.800;6.772;2022-11-30T14:09:16;44.42;;;36.15;;
11016;SDS011;54687;50.800;6.772;2022-11-30T14:12:35;45.30;;;37.78;;
11016;SDS011;54687;50.800;6.772;2022-11-30T14:18:03;46.88;;;38.58;;
11016;SDS011;54687;50.800;6.772;2022-11-30T14:20:47;48.90;;;40.00;;
11016;SDS011;54687;50.800;6.772;2022-11-30T14:23:20;51.63;;;42.20;;
11016;SDS011;54687;50.800;6.772;2022-11-30T14:25:50;46.50;;;39.33;;
11016;SDS011;54687;50.800;6.772;2022-11-30T14:28:22;46.53;;;39.75;;
11016;SDS011;54687;50.800;6.772;2022-11-30T14:30:52;48.47;;;40.40;;
11016;SDS011;54687;50.800;6.772;2022-11-30T14:33:23;44.15;;;37.92;;
11016;SDS011;54687;50.800;6.772;2022-11-30T14:35:53;46.80;;;39.20;;
11016;SDS011;54687;50.800;6.772;2022-11-30T14:38:23;45.60;;;38.92;;
11016;SDS011;54687;50.800;6.772;2022-11-30T14:40:52;55.50;;;40.58;;
11016;SDS011;54687;50.800;6.772;2022-11-30T14:43:19;49.13;;;39.63;;
11016;SDS011;54687;50.800;6.772;2022-11-30T14:45:55;45.33;;;38.55;;
11016;SDS011;54687;50.800;6.772;2022-11-30T14:48:24;45.55;;;38.58;;
11016;SDS011;54687;50.800;6.772;2022-11-30T14:50:53;47.92;;;40.60;;
11016;SDS011;54687;50.800;6.772;2022-11-30T14:53:25;48.33;;;38.22;;
11016;SDS011;54687;50.800;6.772;2022-11-30T14:56:03;47.13;;;36.60;;